Time;durP1;ratioP1;P1;durP2;ratioP2;P2;SDS_P1;SDS_P2;PMS_P1;PMS_P2;Temp;Humidity;BMP_temperature;BMP_pressure;BME280_temperature;BME280_humidity;BME280_pressure;Samples;Min_cycle;Max_cycle;Signal;HPM_P1;HPM_P2
2022/03/10 00:01:19;;;;;;;9.05;5.65;;;;;;;19.35;37.89;102242.47;5034021;28;20027;-60
2022/03/10 00:03:45;;;;;;;7.80;5.53;;;;;;;19.31;37.71;102233.06;5033246;28;20018;-59
2022/03/10 00:06:10;;;;;;;8.88;5.20;;;;;;;19.29;37.88;102239.38;5034163;28;20282;-60
2022/03/10 00:08:35;;;;;;;7.87;5.57;;;;;;;19.28;37.86;102245.59;5033681;28;20071;-59
2022/03/10 00:11:00;;;;;;;9.88;5.95;;;;;;;19.26;37.65;102247.50;5033127;28;20290;-59
2022/03/10 00:13:29;;;;;;;9.20;5.90;;;;;;;19.24;37.99;102249.41;5033858;28;20372;-59
2022/03/10 00:15:55;;;;;;;8.52;6.10;;;;;;;19.20;38.12;102244.31;5033683;28;20374;-59
2022/03/10 00:18:20;;;;;;;8.52;5.45;;;;;;;19.20;38.03;102251.38;5032874;28;20108;-59
2022/03/10 00:20:45;;;;;;;8.30;5.30;;;;;;;19.17;38.01;102249.81;5033875;28;20486;-62
2022/03/10 00:23:11;;;;;;;8.05;5.72;;;;;;;19.17;37.57;102262.19;5033683;28;20282;-58
2022/03/10 00:25:36;;;;;;;10.53;5.97;;;;;;;19.17;37.81;102248.97;5032507;28;20033;-59
2022/03/10 00:28:01;;;;;;;9.20;5.83;;;;;;;19.15;37.71;102256.13;5033745;28;20279;-59
2022/03/10 00:30:27;;;;;;;10.57;6.07;;;;;;;19.12;37.92;102251.91;5033391;28;20629;-60
2022/03/10 00:32:53;;;;;;;9.90;6.00;;;;;;;19.09;37.67;102252.09;5032773;28;20025;-59
2022/03/10 00:35:20;;;;;;;7.95;5.53;;;;;;;19.07;37.79;102242.53;5033450;28;20044;-60
2022/03/10 00:37:46;;;;;;;8.75;5.70;;;;;;;19.08;37.64;102253.03;5032696;28;20096;-60
2022/03/10 00:40:12;;;;;;;8.48;5.63;;;;;;;19.08;37.66;102250.38;5033378;28;20032;-60
2022/03/10 00:42:38;;;;;;;8.45;6.00;;;;;;;19.07;37.38;102253.13;5033223;28;20067;-59
2022/03/10 00:45:05;;;;;;;8.90;5.82;;;;;;;19.03;37.68;102255.09;5032580;28;20048;-60
2022/03/10 00:47:31;;;;;;;9.02;6.18;;;;;;;19.01;37.53;102254.38;5032975;28;20033;-60
2022/03/10 00:49:56;;;;;;;9.23;5.65;;;;;;;19.00;37.73;102260.59;5033297;28;20499;-59
2022/03/10 00:52:21;;;;;;;7.33;5.47;;;;;;;18.97;37.63;102256.34;5031985;28;20053;-59
2022/03/10 00:54:47;;;;;;;9.10;5.72;;;;;;;18.97;37.62;102258.97;5033078;28;20277;-59
2022/03/10 00:57:12;;;;;;;8.07;5.53;;;;;;;18.96;37.60;102264.34;5033248;28;20056;-59
2022/03/10 00:59:37;;;;;;;8.20;6.03;;;;;;;18.95;37.77;102262.69;5032251;28;20069;-59
2022/03/10 01:02:03;;;;;;;8.53;5.57;;;;;;;18.92;37.68;102253.13;5033037;28;20293;-59
2022/03/10 01:04:28;;;;;;;9.57;6.10;;;;;;;18.95;37.61;102257.38;5032665;28;20317;-60
2022/03/10 01:06:53;;;;;;;9.13;5.83;;;;;;;18.95;37.50;102258.22;5032116;28;20057;-59
2022/03/10 01:09:18;;;;;;;9.07;5.90;;;;;;;18.91;37.92;102262.00;5032836;28;20277;-59
2022/03/10 01:11:44;;;;;;;8.70;5.32;;;;;;;18.91;37.56;102255.88;5032606;28;20046;-59
2022/03/10 01:14:09;;;;;;;7.83;5.53;;;;;;;18.88;37.70;102262.19;5032250;28;20025;-59
2022/03/10 01:16:34;;;;;;;8.90;5.78;;;;;;;18.87;37.55;102265.78;5032546;28;20333;-60
2022/03/10 01:19:00;;;;;;;9.50;5.97;;;;;;;18.89;37.75;102263.06;5032902;28;20029;-58
2022/03/10 01:21:25;;;;;;;8.63;6.07;;;;;;;18.85;37.64;102259.75;5031834;28;20330;-59
2022/03/10 01:23:50;;;;;;;7.97;6.17;;;;;;;18.84;37.67;102252.78;5032760;28;20029;-60
2022/03/10 01:26:15;;;;;;;8.27;5.87;;;;;;;18.83;37.47;102253.66;5032912;28;20630;-59
2022/03/10 01:28:41;;;;;;;9.00;6.03;;;;;;;18.80;37.53;102251.22;5031963;28;20274;-60
2022/03/10 01:31:09;;;;;;;9.07;5.93;;;;;;;18.81;37.73;102259.03;5032591;28;20290;-60
2022/03/10 01:33:34;;;;;;;9.57;5.55;;;;;;;18.79;37.53;102250.38;5032290;28;20369;-60
2022/03/10 01:36:00;;;;;;;7.82;5.78;;;;;;;18.76;37.97;102252.38;5032039;28;20028;-60
2022/03/10 01:38:25;;;;;;;8.20;5.60;;;;;;;18.75;38.32;102254.13;5032279;28;20053;-60
2022/03/10 01:40:51;;;;;;;10.45;6.35;;;;;;;18.73;38.29;102252.56;5032611;28;20391;-60
2022/03/10 01:43:16;;;;;;;9.85;6.28;;;;;;;18.76;38.46;102255.00;5032527;28;20430;-60
2022/03/10 01:45:41;;;;;;;8.50;5.80;;;;;;;18.78;38.22;102253.13;5032450;28;20029;-60
2022/03/10 01:48:07;;;;;;;10.95;6.13;;;;;;;18.79;38.23;102252.19;5032074;28;20108;-60
2022/03/10 01:50:33;;;;;;;11.18;6.40;;;;;;;18.78;37.93;102250.47;5032439;28;20026;-60
2022/03/10 01:53:00;;;;;;;8.45;6.10;;;;;;;18.79;38.37;102242.44;5032558;28;20431;-60
2022/03/10 01:55:26;;;;;;;7.72;5.13;;;;;;;18.80;38.10;102248.56;5031729;28;20025;-60
2022/03/10 01:57:52;;;;;;;8.18;5.60;;;;;;;18.79;38.16;102245.09;5032730;28;20072;-60
2022/03/10 02:00:18;;;;;;;9.13;5.90;;;;;;;18.81;37.94;102248.47;5032726;28;20030;-59
2022/03/10 02:02:43;;;;;;;8.40;5.28;;;;;;;18.81;37.79;102247.66;5031448;28;20030;-59
2022/03/10 02:05:08;;;;;;;9.05;6.18;;;;;;;18.80;37.96;102244.16;5032405;28;20029;-59
2022/03/10 02:10:18;;;;;;;8.05;5.43;;;;;;;18.80;37.57;102246.81;5031925;28;20099;-59
2022/03/10 02:12:49;;;;;;;9.45;6.30;;;;;;;18.80;37.08;102245.94;5032111;28;20034;-60
2022/03/10 02:18:01;;;;;;;8.80;6.10;;;;;;;18.79;37.28;102244.25;5031630;28;20036;-59
2022/03/10 02:20:27;;;;;;;8.77;6.13;;;;;;;18.79;37.04;102236.34;5031964;28;20056;-59
2022/03/10 02:22:53;;;;;;;9.57;6.18;;;;;;;18.76;37.13;102231.25;5032518;28;20034;-59
2022/03/10 02:25:21;;;;;;;7.82;5.70;;;;;;;18.77;36.99;102238.19;5031674;28;20108;-60
2022/03/10 02:27:52;;;;;;;7.85;5.47;;;;;;;18.77;36.87;102238.19;5032393;28;20021;-60
2022/03/10 02:30:19;;;;;;;8.88;6.28;;;;;;;18.75;37.47;102237.47;5031469;28;20022;-60
2022/03/10 02:32:44;;;;;;;9.95;6.40;;;;;;;18.71;37.79;102234.16;5032446;28;20029;-60
2022/03/10 02:35:09;;;;;;;9.88;6.60;;;;;;;18.76;37.60;102240.00;5032108;28;20053;-60
2022/03/10 02:37:34;;;;;;;9.65;6.40;;;;;;;18.77;37.48;102240.84;5031195;28;20034;-60
2022/03/10 02:40:00;;;;;;;7.85;5.88;;;;;;;18.79;37.31;102237.16;5032263;28;20104;-60
2022/03/10 02:42:25;;;;;;;8.27;5.70;;;;;;;18.80;37.60;102232.72;5033821;28;20030;-60
2022/03/10 02:44:50;;;;;;;8.90;5.72;;;;;;;18.81;37.25;102240.56;5034829;28;20365;-60
2022/03/10 02:47:18;;;;;;;9.40;6.33;;;;;;;18.81;37.58;102237.91;5035630;28;20491;-60
2022/03/10 02:49:43;;;;;;;8.15;5.78;;;;;;;18.82;37.25;102242.25;5035410;28;20688;-59
2022/03/10 02:52:09;;;;;;;7.38;5.50;;;;;;;18.82;37.12;102241.44;5034843;28;20104;-59
2022/03/10 02:54:35;;;;;;;9.48;5.65;;;;;;;18.81;37.45;102237.91;5035217;28;20033;-59
2022/03/10 02:57:00;;;;;;;9.18;5.97;;;;;;;18.82;37.11;102242.25;5035340;28;20416;-59
2022/03/10 02:59:25;;;;;;;9.40;6.07;;;;;;;18.79;37.32;102231.88;5034529;28;20052;-59
2022/03/10 03:01:50;;;;;;;8.18;5.88;;;;;;;18.78;37.34;102235.47;5035400;28;20080;-59
2022/03/10 03:04:16;;;;;;;7.93;5.93;;;;;;;18.79;37.47;102244.25;5035411;28;20033;-59
2022/03/10 03:06:42;;;;;;;9.07;5.97;;;;;;;18.78;37.18;102234.63;5034388;28;20381;-59
2022/03/10 03:09:07;;;;;;;8.88;6.35;;;;;;;18.77;36.94;102236.44;5035432;28;20037;-59
2022/03/10 03:11:33;;;;;;;10.48;6.32;;;;;;;18.76;36.84;102234.72;5034842;28;20049;-59
2022/03/10 03:13:58;;;;;;;8.68;6.03;;;;;;;18.74;37.15;102233.97;5034428;28;20033;-60
2022/03/10 03:16:26;;;;;;;8.90;5.95;;;;;;;18.76;37.32;102237.38;5034599;28;20469;-60
2022/03/10 03:18:52;;;;;;;9.95;6.45;;;;;;;18.77;37.28;102239.06;5035181;28;20068;-60
2022/03/10 03:21:18;;;;;;;8.40;5.80;;;;;;;18.78;37.46;102240.75;5034425;28;20084;-60
2022/03/10 03:23:43;;;;;;;10.68;6.40;;;;;;;18.81;37.48;102239.72;5034968;28;20064;-60
2022/03/10 03:26:09;;;;;;;8.10;6.35;;;;;;;18.80;37.63;102244.16;5035089;28;20053;-60
2022/03/10 03:28:34;;;;;;;9.15;6.30;;;;;;;18.81;37.30;102247.66;5033812;28;20065;-60
2022/03/10 03:30:59;;;;;;;8.40;5.97;;;;;;;18.81;37.22;102245.84;5034669;28;20036;-60
2022/03/10 03:33:25;;;;;;;7.95;5.93;;;;;;;18.80;36.85;102245.94;5033899;28;20026;-60
2022/03/10 03:35:50;;;;;;;8.02;5.78;;;;;;;18.82;37.00;102255.47;5034792;28;20033;-59
2022/03/10 03:38:15;;;;;;;8.15;5.70;;;;;;;18.82;36.79;102254.63;5034858;28;20412;-60
2022/03/10 03:40:41;;;;;;;8.65;5.90;;;;;;;18.82;36.64;102255.47;5033518;28;20427;-60
2022/03/10 03:43:06;;;;;;;9.30;5.90;;;;;;;18.82;36.65;102252.84;5033369;28;20022;-60
2022/03/10 03:45:31;;;;;;;8.02;6.05;;;;;;;18.84;37.01;102250.97;5034103;28;20380;-60
2022/03/10 03:47:57;;;;;;;9.52;6.70;;;;;;;18.90;36.87;102248.88;5033937;28;20075;-60
2022/03/10 03:50:22;;;;;;;8.27;6.07;;;;;;;18.94;36.98;102250.41;5034238;28;20059;-60
2022/03/10 03:52:47;;;;;;;9.73;6.73;;;;;;;18.96;36.85;102256.44;5033999;28;20291;-58
2022/03/10 03:55:13;;;;;;;10.35;5.90;;;;;;;18.97;36.84;102261.63;5033631;28;20266;-59
2022/03/10 03:57:39;;;;;;;9.10;6.35;;;;;;;18.97;36.82;102266.91;5034009;28;20025;-59
2022/03/10 04:00:07;;;;;;;8.43;6.15;;;;;;;18.95;36.64;102267.97;5034208;28;20021;-60
2022/03/10 04:02:32;;;;;;;9.43;6.43;;;;;;;18.95;36.71;102274.09;5033297;28;20026;-59
2022/03/10 04:04:58;;;;;;;9.48;6.20;;;;;;;18.91;36.84;102263.78;5034290;28;20079;-59
2022/03/10 04:07:23;;;;;;;9.50;6.50;;;;;;;18.90;37.10;102275.28;5033772;28;20143;-59
2022/03/10 04:09:49;;;;;;;8.10;5.97;;;;;;;18.91;36.98;102271.72;5033038;28;20065;-59
2022/03/10 04:12:14;;;;;;;8.63;5.47;;;;;;;18.90;36.60;102268.25;5033996;28;20057;-59
2022/03/10 04:14:39;;;;;;;7.30;5.38;;;;;;;18.90;36.67;102275.28;5033683;28;20028;-59
2022/03/10 04:17:05;;;;;;;8.68;6.00;;;;;;;18.87;36.45;102278.13;5033288;28;20029;-59
2022/03/10 04:19:30;;;;;;;8.32;6.15;;;;;;;18.88;36.46;102285.13;5033834;28;20530;-61
2022/03/10 04:21:55;;;;;;;8.65;6.22;;;;;;;18.95;36.59;102289.94;5033953;28;20025;-58
2022/03/10 04:24:21;;;;;;;9.23;6.70;;;;;;;18.99;36.67;102280.00;5032781;28;20427;-58
2022/03/10 04:26:46;;;;;;;8.57;6.13;;;;;;;19.02;36.80;102278.03;5033851;28;20270;-61
2022/03/10 04:29:13;;;;;;;9.43;6.20;;;;;;;19.04;36.55;102275.28;5033530;28;20273;-60
2022/03/10 04:31:39;;;;;;;9.50;6.30;;;;;;;19.05;36.60;102277.00;5032772;28;20289;-61
2022/03/10 04:34:04;;;;;;;8.80;6.33;;;;;;;19.03;35.99;102277.09;5033494;28;20029;-61
2022/03/10 04:36:30;;;;;;;7.78;5.68;;;;;;;18.99;36.47;102275.59;5033271;28;20373;-59
2022/03/10 04:38:55;;;;;;;8.63;6.28;;;;;;;18.92;36.57;102268.97;5032902;28;20026;-60
2022/03/10 04:41:22;;;;;;;8.63;5.82;;;;;;;18.94;36.64;102279.47;5033278;28;20028;-60
2022/03/10 04:43:48;;;;;;;9.60;6.20;;;;;;;18.92;36.73;102276.91;5032615;28;20021;-60
2022/03/10 04:46:13;;;;;;;8.18;5.88;;;;;;;18.91;36.53;102277.00;5033168;28;20087;-60
2022/03/10 04:48:38;;;;;;;8.93;5.97;;;;;;;18.91;36.38;102277.00;5033176;28;20294;-60
2022/03/10 04:51:04;;;;;;;8.77;6.37;;;;;;;18.95;36.39;102270.59;5032537;28;20535;-60
2022/03/10 04:53:29;;;;;;;11.07;7.03;;;;;;;18.99;36.47;102270.31;5032934;28;20271;-60
2022/03/10 04:55:54;;;;;;;8.63;6.10;;;;;;;19.03;36.64;102274.44;5033007;28;20025;-60
2022/03/10 04:58:22;;;;;;;8.70;5.90;;;;;;;19.03;36.55;102268.31;5031864;28;20266;-60
2022/03/10 05:00:48;;;;;;;8.77;5.95;;;;;;;19.08;36.39;102276.81;5033244;28;20097;-60
2022/03/10 05:03:14;;;;;;;8.18;5.75;;;;;;;19.09;36.49;102275.00;5033280;28;20156;-60
2022/03/10 05:05:40;;;;;;;10.07;6.13;;;;;;;19.08;36.31;102270.69;5031241;28;20030;-59
2022/03/10 05:08:05;;;;;;;10.15;6.20;;;;;;;19.07;36.08;102283.03;5033030;28;20041;-60
2022/03/10 05:10:30;;;;;;;9.07;5.90;;;;;;;19.04;36.11;102275.28;5032272;28;20053;-60
2022/03/10 05:12:59;;;;;;;8.98;5.78;;;;;;;18.99;36.39;102277.38;5031946;28;20034;-59
2022/03/10 05:15:32;;;;;;;9.82;6.10;;;;;;;18.96;36.29;102273.16;5032429;28;20072;-60
2022/03/10 05:17:59;;;;;;;9.57;6.35;;;;;;;18.96;36.37;102280.19;5032949;28;20021;-60
2022/03/10 05:20:25;;;;;;;8.63;6.63;;;;;;;19.00;36.21;102287.00;5031807;28;20104;-60
2022/03/10 05:22:57;;;;;;;9.15;6.15;;;;;;;19.02;36.69;102282.47;5032717;28;20060;-59
2022/03/10 05:25:24;;;;;;;8.43;5.70;;;;;;;19.07;36.38;102287.47;5032267;28;20025;-60
2022/03/10 05:27:53;;;;;;;7.53;5.65;;;;;;;19.06;36.39;102289.28;5032107;28;20033;-60
2022/03/10 05:30:19;;;;;;;9.75;6.18;;;;;;;19.09;36.39;102291.72;5032644;28;20411;-59
2022/03/10 05:32:45;;;;;;;8.15;5.63;;;;;;;19.08;36.19;102287.38;5032936;28;20030;-62
2022/03/10 05:35:14;;;;;;;8.55;6.15;;;;;;;19.08;36.25;102284.72;5031843;28;20104;-60
2022/03/10 05:37:40;;;;;;;10.43;5.90;;;;;;;19.08;35.81;102286.53;5032163;28;20395;-60
2022/03/10 05:40:08;;;;;;;9.27;6.05;;;;;;;19.06;35.71;102285.75;5031613;28;20477;-60
2022/03/10 05:42:33;;;;;;;8.70;6.32;;;;;;;19.01;36.21;102284.28;5032409;28;20045;-60
2022/03/10 05:44:58;;;;;;;8.80;6.07;;;;;;;18.97;35.89;102288.03;5032701;28;20025;-60
2022/03/10 05:47:24;;;;;;;9.70;5.78;;;;;;;18.97;35.86;102281.91;5031577;28;20018;-60
2022/03/10 05:49:49;;;;;;;9.30;6.20;;;;;;;19.01;36.35;102281.63;5032442;28;20499;-60
2022/03/10 05:52:15;;;;;;;8.65;6.40;;;;;;;19.03;36.15;102279.72;5032501;28;20029;-60
2022/03/10 05:54:40;;;;;;;7.72;5.95;;;;;;;19.03;36.05;102282.38;5031500;28;20022;-59
2022/03/10 05:57:06;;;;;;;9.30;5.85;;;;;;;19.07;36.19;102285.66;5032502;28;20036;-61
2022/03/10 05:59:31;;;;;;;8.05;5.82;;;;;;;19.13;36.23;102287.91;5032342;28;20028;-59
2022/03/10 06:01:57;;;;;;;8.85;5.47;;;;;;;19.18;36.66;102285.88;5031706;28;20022;-60
2022/03/10 06:04:22;;;;;;;9.02;5.82;;;;;;;19.24;37.31;102287.25;5032050;28;20030;-60
2022/03/10 06:06:50;;;;;;;8.60;5.25;;;;;;;19.32;37.25;102281.47;5032366;28;20026;-60
2022/03/10 06:09:15;;;;;;;9.05;5.57;;;;;;;19.38;37.34;102281.94;5031432;28;20028;-61
2022/03/10 06:11:41;;;;;;;8.10;5.60;;;;;;;19.43;37.41;102279.00;5031925;28;20045;-59
2022/03/10 06:14:06;;;;;;;7.80;5.22;;;;;;;19.48;37.38;102281.34;5032532;28;20365;-60
2022/03/10 06:16:31;;;;;;;10.30;5.65;;;;;;;19.50;37.23;102280.31;5033463;28;20433;-60
2022/03/10 06:18:56;;;;;;;10.00;5.45;;;;;;;19.53;37.21;102281.91;5036299;28;20033;-59
2022/03/10 06:21:22;;;;;;;7.78;5.70;;;;;;;19.56;37.15;102284.34;5035859;28;20087;-60
2022/03/10 06:23:48;;;;;;;9.00;5.70;;;;;;;19.57;37.06;102284.25;5035209;28;20025;-60
2022/03/10 06:26:14;;;;;;;9.07;5.85;;;;;;;19.58;37.47;102280.66;5036054;28;20025;-60
2022/03/10 06:28:40;;;;;;;8.68;5.40;;;;;;;19.64;37.63;102283.84;5035660;28;20041;-59
2022/03/10 06:31:06;;;;;;;7.82;4.93;;;;;;;19.66;37.47;102282.81;5035219;28;20021;-59
2022/03/10 06:33:32;;;;;;;7.15;5.07;;;;;;;19.70;37.78;102291.38;5035609;28;20029;-59
2022/03/10 06:35:57;;;;;;;9.88;5.65;;;;;;;19.73;37.64;102285.91;5035574;28;20032;-60
2022/03/10 06:38:23;;;;;;;7.27;5.10;;;;;;;19.77;37.52;102286.56;5034612;28;20061;-60
2022/03/10 06:40:48;;;;;;;7.63;4.82;;;;;;;19.75;37.49;102284.00;5035682;28;20336;-60
2022/03/10 06:43:13;;;;;;;7.68;4.93;;;;;;;19.78;37.20;102283.81;5035798;28;20499;-60
2022/03/10 06:45:38;;;;;;;8.82;4.93;;;;;;;19.79;37.09;102288.19;5034460;28;20055;-60
2022/03/10 06:48:04;;;;;;;8.50;5.20;;;;;;;19.79;37.17;102285.53;5035428;28;20033;-59
2022/03/10 06:50:29;;;;;;;8.85;4.90;;;;;;;19.80;36.69;102286.38;5034634;28;20328;-60
2022/03/10 06:52:56;;;;;;;8.55;5.10;;;;;;;19.82;37.15;102298.56;5035240;28;20417;-59
2022/03/10 06:55:23;;;;;;;14.07;6.68;;;;;;;19.77;35.66;102297.16;5035195;28;20045;-60
2022/03/10 06:57:48;;;;;;;9.00;5.82;;;;;;;19.80;37.19;102302.25;5034406;28;20079;-60
2022/03/10 07:00:14;;;;;;;7.72;4.90;;;;;;;19.85;37.42;102305.44;5035230;28;20029;-60
2022/03/10 07:02:39;;;;;;;8.77;5.45;;;;;;;19.89;37.60;102305.13;5034926;28;20037;-61
2022/03/10 07:05:07;;;;;;;7.63;4.47;;;;;;;19.93;37.80;102305.75;5034549;28;20021;-62
2022/03/10 07:07:32;;;;;;;8.18;5.00;;;;;;;19.94;37.94;102297.72;5035086;28;20029;-61
2022/03/10 07:09:58;;;;;;;10.32;5.80;;;;;;;19.93;35.52;102308.41;5034946;28;20026;-60
2022/03/10 07:12:23;;;;;;;10.10;6.35;;;;;;;19.85;36.83;102303.66;5033718;28;20037;-60
2022/03/10 07:14:48;;;;;;;8.32;5.03;;;;;;;19.84;37.84;102309.88;5035002;28;20469;-61
2022/03/10 07:17:14;;;;;;;7.80;4.68;;;;;;;19.93;37.83;102314.56;5034962;28;20037;-61
2022/03/10 07:19:39;;;;;;;11.15;5.90;;;;;;;20.00;37.77;102306.22;5033875;28;20112;-61
2022/03/10 07:22:04;;;;;;;7.63;4.28;;;;;;;20.01;38.06;102307.91;5034711;28;20108;-60
2022/03/10 07:24:30;;;;;;;7.53;4.35;;;;;;;20.01;37.88;102306.13;5033259;28;20037;-61
2022/03/10 07:26:56;;;;;;;9.88;4.60;;;;;;;20.02;38.29;102306.97;5033531;28;20022;-61
2022/03/10 07:29:21;;;;;;;7.22;4.30;;;;;;;20.03;38.40;102311.31;5034293;28;20028;-60
2022/03/10 07:31:46;;;;;;;7.60;4.30;;;;;;;20.00;38.63;102315.00;5034832;28;20037;-61
2022/03/10 07:34:12;;;;;;;8.23;4.43;;;;;;;20.00;38.93;102312.38;5034426;28;20301;-61
2022/03/10 07:36:37;;;;;;;7.20;4.55;;;;;;;19.99;39.08;102307.16;5034404;28;20793;-60
2022/03/10 07:39:03;;;;;;;8.27;4.45;;;;;;;20.04;36.46;102313.84;5034681;28;20081;-62
2022/03/10 07:41:28;;;;;;;12.90;7.68;;;;;;;20.08;36.57;102304.75;5033527;28;20099;-63
2022/03/10 07:43:53;;;;;;;10.63;5.53;;;;;;;20.10;38.29;102308.13;5034677;28;20021;-59
2022/03/10 07:46:22;;;;;;;8.17;4.67;;;;;;;20.08;38.51;102307.41;5034304;28;20022;-62
2022/03/10 07:48:48;;;;;;;11.32;5.75;;;;;;;20.10;36.97;102312.59;5033713;28;20355;-62
2022/03/10 07:51:13;;;;;;;7.80;5.25;;;;;;;20.10;38.25;102308.13;5034271;28;20417;-60
2022/03/10 07:53:38;;;;;;;8.18;4.57;;;;;;;20.08;38.31;102312.69;5033661;28;20033;-61
2022/03/10 07:56:04;;;;;;;7.25;4.38;;;;;;;20.07;38.90;102308.34;5034481;28;20022;-61
2022/03/10 07:58:29;;;;;;;8.82;4.70;;;;;;;20.08;39.18;102309.22;5034055;28;20022;-61
2022/03/10 08:00:55;;;;;;;7.37;4.73;;;;;;;20.11;39.25;102301.91;5033672;28;20353;-61
2022/03/10 08:03:21;;;;;;;8.05;4.45;;;;;;;20.09;39.20;102305.59;5033851;28;20272;-62
2022/03/10 08:05:47;;;;;;;10.15;4.95;;;;;;;20.11;39.11;102298.41;5034098;28;20025;-61
2022/03/10 08:08:13;;;;;;;8.68;4.57;;;;;;;20.17;39.38;102295.38;5033488;28;20028;-63
2022/03/10 08:10:39;;;;;;;6.25;4.03;;;;;;;20.22;39.25;102303.84;5033715;28;20125;-60
2022/03/10 08:13:05;;;;;;;8.50;4.40;;;;;;;20.23;39.26;102302.88;5034128;28;20029;-62
2022/03/10 08:15:30;;;;;;;6.87;3.90;;;;;;;20.26;39.45;102310.59;5032868;28;20075;-60
2022/03/10 08:17:55;;;;;;;7.10;4.38;;;;;;;20.28;39.48;102305.22;5033797;28;20302;-62
2022/03/10 08:20:21;;;;;;;6.15;4.18;;;;;;;20.33;39.39;102311.06;5033397;28;20036;-60
2022/03/10 08:22:46;;;;;;;7.50;4.43;;;;;;;20.37;39.71;102312.53;5032975;28;20067;-60
2022/03/10 08:25:12;;;;;;;8.32;4.50;;;;;;;20.40;39.46;102308.84;5033954;28;20029;-61
2022/03/10 08:27:37;;;;;;;8.70;4.22;;;;;;;20.41;39.34;102310.53;5033471;28;20021;-62
2022/03/10 08:30:03;;;;;;;7.00;4.10;;;;;;;20.34;39.23;102312.75;5032865;28;20021;-62
2022/03/10 08:32:29;;;;;;;7.32;4.22;;;;;;;20.26;40.41;102307.13;5033400;28;20619;-64
2022/03/10 08:34:54;;;;;;;7.03;4.20;;;;;;;20.27;41.07;102309.66;5033555;28;20071;-61
2022/03/10 08:37:20;;;;;;;6.88;3.85;;;;;;;20.38;40.98;102310.75;5032327;28;20473;-63
2022/03/10 08:39:45;;;;;;;8.43;4.22;;;;;;;20.48;40.77;102306.50;5032812;28;20116;-62
2022/03/10 08:42:10;;;;;;;9.13;4.50;;;;;;;20.57;40.29;102305.88;5033510;28;20033;-64
2022/03/10 08:44:36;;;;;;;10.23;5.10;;;;;;;20.68;40.00;102307.84;5032506;28;20266;-62
2022/03/10 08:47:01;;;;;;;8.77;4.80;;;;;;;20.70;39.89;102297.97;5033525;28;20156;-61
2022/03/10 08:49:27;;;;;;;6.90;4.50;;;;;;;20.68;38.90;102301.66;5033185;28;20044;-61
2022/03/10 08:51:52;;;;;;;10.57;5.05;;;;;;;20.63;39.66;102302.81;5032774;28;20036;-63
2022/03/10 08:54:17;;;;;;;7.70;4.15;;;;;;;20.62;39.92;102301.13;5033544;28;20271;-62
2022/03/10 08:56:43;;;;;;;7.38;4.45;;;;;;;20.58;39.94;102304.06;5032901;28;20029;-61
2022/03/10 08:59:08;;;;;;;7.60;3.88;;;;;;;20.54;39.98;102300.81;5032562;28;20029;-61
2022/03/10 09:01:33;;;;;;;8.17;4.30;;;;;;;20.54;39.92;102302.63;5032836;28;20440;-61
2022/03/10 09:03:59;;;;;;;8.80;4.47;;;;;;;20.52;39.92;102294.78;5032411;28;20275;-60
2022/03/10 09:06:24;;;;;;;8.75;4.25;;;;;;;20.51;40.45;102298.38;5032765;28;20271;-61
2022/03/10 09:08:49;;;;;;;6.90;4.28;;;;;;;20.50;40.90;102296.66;5033109;28;20060;-61
2022/03/10 09:11:16;;;;;;;7.53;4.43;;;;;;;20.55;41.01;102299.81;5032542;28;20049;-62
2022/03/10 09:13:48;;;;;;;11.07;4.38;;;;;;;20.62;40.99;102282.56;5032671;28;20473;-62
2022/03/10 09:16:13;;;;;;;8.38;4.07;;;;;;;20.72;41.04;102285.47;5033019;28;20029;-62
2022/03/10 09:18:39;;;;;;;6.47;3.58;;;;;;;20.75;41.06;102282.59;5032027;28;21107;-61
2022/03/10 09:21:07;;;;;;;12.88;4.78;;;;;;;20.74;40.61;102285.34;5033701;28;20021;-61
2022/03/10 09:23:33;;;;;;;7.53;4.28;;;;;;;20.73;40.55;102281.00;5032875;28;20036;-62
2022/03/10 09:25:58;;;;;;;9.60;4.40;;;;;;;20.76;40.47;102280.78;5032184;28;20021;-63
2022/03/10 09:28:23;;;;;;;9.25;4.53;;;;;;;20.83;40.17;102274.13;5032644;28;20022;-63
2022/03/10 09:30:48;;;;;;;6.90;4.00;;;;;;;20.85;39.69;102274.84;5033564;28;20075;-62
2022/03/10 09:33:14;;;;;;;15.53;6.30;;;;;;;20.76;37.13;102271.06;5031979;28;20052;-59
2022/03/10 09:35:39;;;;;;;9.32;5.28;;;;;;;20.72;39.74;102266.91;5032559;28;20037;-59
2022/03/10 09:38:04;;;;;;;9.35;4.95;;;;;;;20.71;40.11;102267.88;5033010;28;20357;-62
2022/03/10 09:40:30;;;;;;;8.60;4.80;;;;;;;20.69;40.42;102259.19;5031879;28;20049;-59
2022/03/10 09:42:55;;;;;;;8.95;4.97;;;;;;;20.67;40.22;102257.63;5032607;28;20076;-60
2022/03/10 09:45:20;;;;;;;9.25;5.18;;;;;;;20.64;40.38;102262.16;5032281;28;20030;-60
2022/03/10 09:47:47;;;;;;;8.30;4.45;;;;;;;20.67;40.42;102265.56;5032006;28;20033;-60
2022/03/10 09:50:15;;;;;;;10.27;4.90;;;;;;;20.70;40.17;102260.03;5032598;28;20477;-60
2022/03/10 09:52:44;;;;;;;7.95;4.72;;;;;;;20.78;39.97;102257.69;5036557;28;20057;-58
2022/03/10 09:55:11;;;;;;;8.05;4.30;;;;;;;20.81;40.14;102252.19;5035906;28;20412;-59
2022/03/10 09:57:42;;;;;;;7.55;4.03;;;;;;;20.83;40.21;102247.63;5036067;28;20388;-58
2022/03/10 10:00:10;;;;;;;9.25;4.80;;;;;;;20.84;39.94;102249.31;5036356;28;20550;-58
2022/03/10 10:02:37;;;;;;;8.48;4.80;;;;;;;20.84;39.79;102249.31;5035469;28;20036;-60
2022/03/10 10:05:17;;;;;;;7.20;4.20;;;;;;;20.83;38.36;102239.66;5036579;28;20030;-59
2022/03/10 10:07:59;;;;;;;10.55;5.97;;;;;;;20.75;35.74;102247.31;5035524;28;20035;-62
2022/03/10 10:10:29;;;;;;;10.13;6.25;;;;;;;20.74;39.05;102235.84;5035998;28;20111;-60
2022/03/10 10:12:54;;;;;;;10.15;4.43;;;;;;;20.75;39.07;102236.72;5036241;28;20152;-59
2022/03/10 10:15:19;;;;;;;8.45;4.88;;;;;;;20.77;39.30;102240.09;5035376;28;20061;-60
2022/03/10 10:17:45;;;;;;;9.95;4.47;;;;;;;20.77;39.91;102237.44;5036198;28;20029;-60
2022/03/10 10:20:10;;;;;;;7.50;4.32;;;;;;;20.79;39.74;102232.88;5036222;28;20026;-59
2022/03/10 10:22:36;;;;;;;8.35;4.60;;;;;;;20.80;39.98;102232.78;5035205;28;20021;-63
2022/03/10 10:25:05;;;;;;;8.93;3.85;;;;;;;20.81;40.75;102237.13;5036117;28;20025;-62
2022/03/10 10:27:32;;;;;;;9.23;4.43;;;;;;;20.79;41.11;102235.53;5035558;28;20022;-63
2022/03/10 10:30:00;;;;;;;8.65;4.47;;;;;;;20.79;40.83;102236.41;5035465;28;20037;-63
2022/03/10 10:32:33;;;;;;;7.90;4.13;;;;;;;20.76;41.63;102236.63;5035688;28;20465;-62
2022/03/10 10:35:06;;;;;;;9.77;4.10;;;;;;;20.81;41.67;102236.28;5036137;28;20037;-58
2022/03/10 10:37:33;;;;;;;10.20;4.07;;;;;;;20.82;41.19;102230.00;5034571;28;20033;-60
2022/03/10 10:39:58;;;;;;;7.38;3.65;;;;;;;20.87;41.75;102216.44;5035682;28;20029;-61
2022/03/10 10:42:29;;;;;;;8.23;4.20;;;;;;;20.89;41.88;102218.03;5035355;28;20029;-61
2022/03/10 10:44:58;;;;;;;10.13;4.22;;;;;;;20.93;41.51;102218.66;5036069;28;20041;-60
2022/03/10 10:47:26;;;;;;;9.77;4.65;;;;;;;20.96;42.06;102221.09;5035297;28;20544;-61
2022/03/10 10:50:05;;;;;;;12.82;4.75;;;;;;;20.96;41.50;102221.09;5034873;28;20039;-61
2022/03/10 10:52:41;;;;;;;7.05;4.15;;;;;;;20.94;39.99;102215.91;5035151;28;20040;-61
2022/03/10 10:55:10;;;;;;;6.90;3.90;;;;;;;20.95;40.49;102214.09;5035562;28;20029;-59
2022/03/10 10:57:37;;;;;;;8.85;3.90;;;;;;;20.95;40.69;102216.72;5034411;28;20029;-59
2022/03/10 11:00:13;;;;;;;8.95;4.60;;;;;;;20.96;40.77;102213.13;5035788;28;20030;-66
2022/03/10 11:02:43;;;;;;;7.93;4.18;;;;;;;20.96;41.87;102203.38;5034107;28;20048;-62
2022/03/10 11:05:12;;;;;;;10.77;4.82;;;;;;;20.97;41.83;102204.25;5034604;28;20029;-69
2022/03/10 11:07:41;;;;;;;9.88;4.35;;;;;;;20.98;41.83;102209.44;5035225;28;20056;-67
2022/03/10 11:10:09;;;;;;;10.27;4.30;;;;;;;20.99;41.83;102197.03;5035324;28;20018;-68
2022/03/10 11:12:39;;;;;;;9.73;4.20;;;;;;;20.91;41.68;102202.88;5034192;28;20028;-63
2022/03/10 11:15:06;;;;;;;6.65;4.03;;;;;;;20.85;41.63;102198.00;5035297;28;20025;-61
2022/03/10 11:17:32;;;;;;;8.48;3.90;;;;;;;20.81;41.61;102200.03;5034945;28;20091;-62
2022/03/10 11:20:00;;;;;;;9.68;4.03;;;;;;;20.81;41.34;102201.84;5034591;28;20468;-62
2022/03/10 11:22:55;;;;;;;6.80;4.38;;;;;;;20.78;42.00;102196.75;5034928;28;20022;-62
2022/03/10 11:25:26;;;;;;;;;;;;;;;20.74;41.96;102198.75;5034378;28;20517;-63